createdAt,value
2018-07-28T00:02:15.889Z,17.63
2018-07-28T00:04:44.071Z,16.70
2018-07-28T00:07:12.248Z,21.80
2018-07-28T00:09:40.428Z,21.90
2018-07-28T00:12:08.604Z,16.00
2018-07-28T00:14:36.830Z,21.80
2018-07-28T00:17:05.103Z,15.97
2018-07-28T00:19:33.277Z,26.97
2018-07-28T00:22:01.456Z,15.77
2018-07-28T00:24:29.392Z,14.73
2018-07-28T00:26:57.560Z,20.60
2018-07-28T00:29:25.738Z,14.60
2018-07-28T00:31:53.953Z,18.93
2018-07-28T00:34:21.930Z,21.10
2018-07-28T00:36:50.106Z,19.43
2018-07-28T00:39:18.303Z,26.50
2018-07-28T00:41:46.458Z,15.77
2018-07-28T00:44:14.656Z,19.27
2018-07-28T00:46:42.828Z,32.97
2018-07-28T00:49:11.011Z,18.80
2018-07-28T00:51:39.178Z,10.07
2018-07-28T00:54:07.383Z,17.67
2018-07-28T00:56:35.560Z,17.70
2018-07-28T00:59:03.738Z,18.97
2018-07-28T01:01:31.927Z,16.87
2018-07-28T01:03:59.875Z,24.20
2018-07-28T01:06:28.029Z,17.13
2018-07-28T01:08:56.217Z,20.10
2018-07-28T01:11:24.554Z,11.33
2018-07-28T01:13:52.724Z,15.97
2018-07-28T01:16:21.428Z,15.40
2018-07-28T01:18:49.607Z,18.67
2018-07-28T01:21:17.784Z,17.13
2018-07-28T01:23:45.958Z,23.47
2018-07-28T01:26:14.151Z,16.23
2018-07-28T01:28:42.328Z,21.20
2018-07-28T01:31:10.517Z,20.63
2018-07-28T01:33:38.506Z,16.17
2018-07-28T01:36:06.718Z,16.83
2018-07-28T01:38:34.912Z,23.47
2018-07-28T01:41:03.084Z,16.60
2018-07-28T01:43:31.275Z,16.63
2018-07-28T01:45:59.208Z,22.37
2018-07-28T01:48:27.384Z,19.93
2018-07-28T01:50:55.561Z,14.20
2018-07-28T01:53:23.781Z,13.93
2018-07-28T01:55:51.964Z,22.90
2018-07-28T01:58:20.187Z,13.73
2018-07-28T02:00:48.355Z,24.37
2018-07-28T02:03:16.548Z,21.17
2018-07-28T02:05:44.724Z,12.83
2018-07-28T02:08:13.031Z,15.93
2018-07-28T02:10:41.225Z,15.17
2018-07-28T02:13:09.400Z,14.63
2018-07-28T02:15:37.595Z,20.50
2018-07-28T02:18:05.784Z,17.20
2018-07-28T02:20:33.968Z,22.20
2018-07-28T02:23:02.158Z,18.67
2018-07-28T02:25:30.098Z,16.40
2018-07-28T02:27:58.271Z,17.20
2018-07-28T02:30:26.444Z,18.20
2018-07-28T02:32:54.623Z,18.63
2018-07-28T02:35:22.789Z,15.77
2018-07-28T02:37:50.964Z,20.83
2018-07-28T02:40:19.138Z,15.90
2018-07-28T02:42:47.325Z,17.80
2018-07-28T02:45:15.828Z,18.20
2018-07-28T02:47:44.021Z,24.70
2018-07-28T02:50:12.251Z,18.83
2018-07-28T02:52:40.270Z,18.73
2018-07-28T02:55:09.206Z,16.03
2018-07-28T02:57:37.504Z,20.60
2018-07-28T03:00:05.654Z,16.20
2018-07-28T03:02:34.033Z,16.37
2018-07-28T03:05:02.251Z,17.30
2018-07-28T03:07:30.599Z,15.33
2018-07-28T03:09:58.547Z,15.13
2018-07-28T03:12:26.731Z,13.40
2018-07-28T03:14:54.887Z,14.67
2018-07-28T03:17:23.067Z,12.23
2018-07-28T03:19:51.236Z,10.63
2018-07-28T03:22:19.420Z,14.67
2018-07-28T03:24:47.592Z,12.13
2018-07-28T03:27:15.765Z,16.07
2018-07-28T03:29:43.954Z,14.30
2018-07-28T03:32:11.939Z,13.27
2018-07-28T03:34:39.875Z,15.80
2018-07-28T03:37:08.044Z,12.73
2018-07-28T03:39:36.206Z,13.73
2018-07-28T03:42:04.384Z,12.43
2018-07-28T03:44:32.587Z,12.80
2018-07-28T03:47:00.571Z,13.47
2018-07-28T03:49:28.759Z,12.40
2018-07-28T03:51:56.943Z,16.67
2018-07-28T03:54:25.126Z,9.37
2018-07-28T03:56:53.299Z,12.40
2018-07-28T03:59:22.179Z,15.50
2018-07-28T04:01:50.360Z,12.93
2018-07-28T04:04:18.617Z,13.07
2018-07-28T04:06:46.719Z,11.10
2018-07-28T04:09:14.895Z,16.33
2018-07-28T04:11:43.076Z,16.50
2018-07-28T04:14:11.286Z,10.77
2018-07-28T04:16:39.455Z,15.60
2018-07-28T04:19:07.379Z,19.63
2018-07-28T04:21:35.596Z,11.63
2018-07-28T04:24:03.558Z,19.30
2018-07-28T04:26:31.506Z,14.27
2018-07-28T04:29:00.352Z,11.57
2018-07-28T04:31:28.637Z,14.27
2018-07-28T04:33:56.803Z,14.27
2018-07-28T04:36:24.980Z,14.43
2018-07-28T04:38:53.151Z,15.83
2018-07-28T04:41:21.326Z,13.37
2018-07-28T04:43:49.497Z,12.30
2018-07-28T04:46:17.669Z,16.60
2018-07-28T04:48:45.928Z,18.53
2018-07-28T04:51:14.117Z,14.43
2018-07-28T04:53:42.326Z,14.37
2018-07-28T04:56:10.514Z,14.00
2018-07-28T04:58:38.684Z,16.30
2018-07-28T05:01:06.863Z,17.50
2018-07-28T05:03:35.136Z,23.30
2018-07-28T05:06:03.307Z,17.20
2018-07-28T05:08:31.507Z,22.90
2018-07-28T05:10:59.443Z,18.63
2018-07-28T05:13:27.612Z,17.13
2018-07-28T05:15:56.068Z,14.47
2018-07-28T05:18:24.207Z,15.30
2018-07-28T05:20:52.412Z,12.70
2018-07-28T05:23:20.787Z,17.60
2018-07-28T05:25:48.972Z,14.53
2018-07-28T05:28:17.156Z,12.67
2018-07-28T05:30:45.332Z,16.70
2018-07-28T05:33:13.520Z,19.10
2018-07-28T05:35:41.686Z,12.37
2018-07-28T05:38:09.883Z,13.93
2018-07-28T05:40:38.039Z,13.20
2018-07-28T05:43:06.280Z,12.53
2018-07-28T05:45:34.471Z,12.97
2018-07-28T05:48:02.661Z,15.47
2018-07-28T05:50:30.842Z,13.67
2018-07-28T05:52:59.048Z,13.73
2018-07-28T05:55:26.978Z,11.73
2018-07-28T05:57:55.172Z,13.80
2018-07-28T06:00:23.114Z,13.13
2018-07-28T06:02:51.417Z,14.77
2018-07-28T06:05:19.535Z,15.63
2018-07-28T06:07:47.719Z,10.33
2018-07-28T06:10:15.890Z,12.10
2018-07-28T06:12:44.064Z,17.20
2018-07-28T06:15:12.280Z,19.67
2018-07-28T06:17:40.471Z,7.97
2018-07-28T06:20:09.097Z,12.93
2018-07-28T06:22:37.644Z,14.27
2018-07-28T06:25:06.524Z,10.07
2018-07-28T06:27:34.512Z,11.67
2018-07-28T06:30:02.723Z,14.30
2018-07-28T06:32:30.894Z,10.40
2018-07-28T06:34:59.356Z,12.33
2018-07-28T06:37:27.523Z,13.03
2018-07-28T06:39:55.707Z,9.90
2018-07-28T06:42:23.883Z,13.13
2018-07-28T06:44:52.143Z,12.50
2018-07-28T06:47:21.051Z,17.00
2018-07-28T06:49:49.227Z,16.87
2018-07-28T06:52:17.432Z,14.53
2018-07-28T06:54:45.627Z,11.20
2018-07-28T06:57:13.588Z,9.47
2018-07-28T06:59:41.531Z,12.03
2018-07-28T07:02:09.727Z,12.27
2018-07-28T07:04:37.693Z,12.57
2018-07-28T07:07:05.627Z,10.20
2018-07-28T07:09:33.786Z,15.57
2018-07-28T07:12:02.081Z,17.77
2018-07-28T07:14:30.272Z,17.40
2018-07-28T07:16:58.514Z,13.60
2018-07-28T07:19:26.699Z,16.67
2018-07-28T07:21:54.895Z,16.43
2018-07-28T07:24:23.072Z,17.70
2018-07-28T07:26:51.277Z,13.90
2018-07-28T07:29:19.455Z,14.90
2018-07-28T07:31:47.655Z,18.90
2018-07-28T07:34:15.888Z,15.60
2018-07-28T07:36:44.095Z,16.00
2018-07-28T07:39:12.304Z,13.23
2018-07-28T07:41:40.531Z,17.80
2018-07-28T07:44:08.691Z,18.30
2018-07-28T07:46:36.870Z,17.00
2018-07-28T07:49:05.032Z,15.37
2018-07-28T07:51:33.222Z,14.83
2018-07-28T07:54:01.562Z,14.53
2018-07-28T07:56:29.581Z,16.40
2018-07-28T07:58:57.755Z,19.63
2018-07-28T08:01:25.951Z,13.90
2018-07-28T08:03:54.220Z,15.50
2018-07-28T08:06:22.448Z,19.10
2018-07-28T08:08:51.715Z,17.67
2018-07-28T08:11:20.732Z,19.37
2018-07-28T08:13:48.921Z,13.77
2018-07-28T08:16:17.738Z,18.40
2018-07-28T08:18:45.931Z,19.20
2018-07-28T08:21:14.112Z,21.43
2018-07-28T08:24:44.716Z,15.07
2018-07-28T08:27:12.916Z,15.10
2018-07-28T08:29:41.168Z,24.03
2018-07-28T08:32:09.320Z,25.87
2018-07-28T08:34:37.491Z,16.00
2018-07-28T08:37:05.683Z,17.33
2018-07-28T08:39:33.882Z,21.17
2018-07-28T08:42:02.053Z,15.57
2018-07-28T08:44:30.237Z,18.40
2018-07-28T08:46:58.410Z,15.13
2018-07-28T08:49:26.663Z,17.30
2018-07-28T08:51:54.788Z,12.60
2018-07-28T08:54:22.946Z,14.13
2018-07-28T08:56:51.101Z,10.93
2018-07-28T08:59:19.285Z,16.27
2018-07-28T09:01:47.461Z,12.60
2018-07-28T09:04:15.818Z,10.17
2018-07-28T09:06:44.007Z,9.60
2018-07-28T09:09:12.206Z,11.13
2018-07-28T09:11:40.374Z,10.43
2018-07-28T09:14:09.288Z,11.40
2018-07-28T09:16:37.524Z,9.10
2018-07-28T09:19:05.760Z,9.63
2018-07-28T09:21:33.931Z,7.30
2018-07-28T09:24:02.127Z,8.10
2018-07-28T09:26:30.492Z,7.47
2018-07-28T09:28:58.671Z,7.23
2018-07-28T09:31:26.840Z,7.50
2018-07-28T09:33:55.011Z,7.20
2018-07-28T09:36:23.216Z,9.03
2018-07-28T09:38:51.412Z,8.53
2018-07-28T09:41:19.846Z,8.30
2018-07-28T09:43:48.020Z,7.37
2018-07-28T09:46:16.236Z,7.70
2018-07-28T09:48:44.416Z,8.30
2018-07-28T09:51:13.047Z,8.00
2018-07-28T09:53:41.232Z,8.10
2018-07-28T09:56:09.423Z,8.67
2018-07-28T09:58:37.583Z,8.37
2018-07-28T10:01:11.107Z,9.30
2018-07-28T10:03:39.267Z,8.30
2018-07-28T10:06:07.614Z,10.40
2018-07-28T10:08:35.756Z,8.63
2018-07-28T10:11:03.931Z,9.70
2018-07-28T10:13:32.123Z,10.87
2018-07-28T10:16:00.299Z,7.37
2018-07-28T10:18:28.476Z,6.00
2018-07-28T10:20:56.684Z,5.47
2018-07-28T10:23:24.846Z,6.13
2018-07-28T10:25:53.162Z,5.83
2018-07-28T10:28:21.099Z,5.53
2018-07-28T10:30:49.267Z,5.37
2018-07-28T10:33:17.556Z,5.30
2018-07-28T10:35:45.724Z,10.83
2018-07-28T10:38:14.196Z,5.13
2018-07-28T10:40:42.359Z,5.67
2018-07-28T10:43:10.536Z,5.73
2018-07-28T10:45:38.809Z,7.83
2018-07-28T10:48:07.036Z,8.30
2018-07-28T10:50:34.956Z,7.00
2018-07-28T10:53:03.150Z,5.83
2018-07-28T10:55:31.370Z,8.13
2018-07-28T10:57:59.323Z,8.77
2018-07-28T11:00:27.352Z,8.80
2018-07-28T11:02:55.488Z,8.90
2018-07-28T11:05:23.703Z,9.40
2018-07-28T11:07:51.963Z,10.90
2018-07-28T11:10:20.238Z,8.77
2018-07-28T11:12:48.407Z,7.00
2018-07-28T11:15:16.563Z,9.10
2018-07-28T11:17:44.763Z,6.93
2018-07-28T11:20:12.936Z,12.63
2018-07-28T11:22:41.122Z,6.57
2018-07-28T11:25:09.545Z,7.80
2018-07-28T11:27:38.325Z,13.10
2018-07-28T11:30:06.742Z,9.40
2018-07-28T11:32:46.544Z,11.03
2018-07-28T11:35:20.148Z,9.80
2018-07-28T11:38:05.112Z,12.67
2018-07-28T11:40:38.703Z,8.57
2018-07-28T11:43:12.371Z,8.20
2018-07-28T11:45:40.575Z,8.73
2018-07-28T11:48:09.200Z,6.97
2018-07-28T11:50:37.366Z,6.83
2018-07-28T11:53:05.575Z,7.03
2018-07-28T11:55:33.767Z,10.90
2018-07-28T11:58:02.038Z,7.37
2018-07-28T12:00:29.943Z,24.63
2018-07-28T12:02:58.147Z,13.20
2018-07-28T12:05:26.390Z,11.57
2018-07-28T12:07:54.528Z,5.43
2018-07-28T12:10:22.741Z,13.60
2018-07-28T12:12:50.981Z,6.57
2018-07-28T12:15:19.168Z,7.20
2018-07-28T12:17:47.149Z,6.03
2018-07-28T12:20:15.356Z,10.33
2018-07-28T12:22:44.500Z,6.53
2018-07-28T12:25:12.683Z,6.17
2018-07-28T12:27:40.628Z,8.73
2018-07-28T12:30:10.403Z,8.63
2018-07-28T12:32:38.574Z,8.63
2018-07-28T12:35:07.177Z,12.70
2018-07-28T12:37:35.519Z,11.23
2018-07-28T12:40:03.874Z,6.27
2018-07-28T12:42:31.886Z,14.70
2018-07-28T12:45:00.068Z,11.70
2018-07-28T12:47:28.254Z,13.77
2018-07-28T12:49:56.419Z,12.90
2018-07-28T12:52:24.615Z,11.00
2018-07-28T12:54:52.832Z,13.83
2018-07-28T12:57:21.070Z,15.80
2018-07-28T12:59:49.248Z,15.03
2018-07-28T13:02:17.475Z,13.30
2018-07-28T13:04:45.662Z,19.17
2018-07-28T13:07:13.849Z,19.97
2018-07-28T13:09:42.032Z,15.00
2018-07-28T13:12:10.224Z,14.57
2018-07-28T13:14:38.183Z,19.23
2018-07-28T13:17:06.428Z,12.03
2018-07-28T13:19:34.329Z,15.17
2018-07-28T13:22:02.541Z,14.70
2018-07-28T13:24:30.756Z,12.87
2018-07-28T13:26:58.919Z,10.87
2018-07-28T13:29:27.247Z,13.50
2018-07-28T13:31:55.224Z,11.50
2018-07-28T13:34:23.392Z,13.13
2018-07-28T13:36:51.567Z,15.20
2018-07-28T13:39:19.772Z,12.07
2018-07-28T13:41:47.940Z,13.60
2018-07-28T13:44:16.211Z,12.23
2018-07-28T13:46:44.384Z,14.50
2018-07-28T13:49:12.587Z,18.63
2018-07-28T13:51:40.785Z,12.97
2018-07-28T13:54:09.002Z,13.67
2018-07-28T13:56:37.285Z,16.00
2018-07-28T13:59:05.759Z,14.37
2018-07-28T14:01:34.099Z,14.20
2018-07-28T14:04:02.048Z,17.83
2018-07-28T14:06:30.223Z,12.13
2018-07-28T14:08:58.536Z,12.67
2018-07-28T14:11:26.713Z,13.67
2018-07-28T14:13:54.896Z,13.80
2018-07-28T14:16:23.108Z,12.83
2018-07-28T14:18:51.389Z,13.73
2018-07-28T14:21:19.520Z,17.30
2018-07-28T14:23:47.714Z,12.30
2018-07-28T14:26:15.976Z,18.50
2018-07-28T14:28:44.190Z,18.23
2018-07-28T14:31:12.409Z,12.03
2018-07-28T14:33:40.636Z,13.43
2018-07-28T14:36:08.851Z,15.63
2018-07-28T14:38:36.810Z,15.93
2018-07-28T14:41:04.770Z,10.37
2018-07-28T14:43:32.712Z,11.20
2018-07-28T14:46:00.904Z,10.23
2018-07-28T14:48:29.204Z,10.30
2018-07-28T14:50:57.161Z,13.77
2018-07-28T14:53:25.103Z,16.80
2018-07-28T14:55:53.411Z,11.40
2018-07-28T14:58:22.659Z,11.07
2018-07-28T15:00:50.856Z,11.53
2018-07-28T15:03:19.043Z,11.93
2018-07-28T15:05:47.224Z,8.83
2018-07-28T15:08:15.168Z,15.10
2018-07-28T15:10:43.383Z,21.97
2018-07-28T15:13:11.554Z,19.97
2018-07-28T15:15:39.736Z,14.97
2018-07-28T15:18:07.917Z,14.80
2018-07-28T15:20:36.080Z,13.27
2018-07-28T15:23:04.284Z,12.13
2018-07-28T15:25:32.483Z,17.83
2018-07-28T15:28:00.668Z,9.07
2018-07-28T15:30:28.851Z,9.73
2018-07-28T15:32:57.767Z,13.00
2018-07-28T15:35:25.944Z,10.93
2018-07-28T15:37:54.151Z,6.53
2018-07-28T15:40:23.030Z,16.13
2018-07-28T15:42:51.222Z,5.87
2018-07-28T15:45:19.403Z,6.67
2018-07-28T15:47:47.624Z,6.80
2018-07-28T15:50:15.890Z,3.43
2018-07-28T15:52:44.104Z,9.80
2018-07-28T15:55:12.299Z,7.93
2018-07-28T15:57:40.479Z,5.07
2018-07-28T16:00:08.669Z,10.43
2018-07-28T16:02:36.618Z,5.80
2018-07-28T16:05:04.984Z,8.77
2018-07-28T16:07:33.165Z,7.70
2018-07-28T16:10:01.404Z,18.57
2018-07-28T16:12:29.580Z,6.97
2018-07-28T16:14:57.756Z,17.20
2018-07-28T16:17:25.944Z,11.53
2018-07-28T16:19:54.140Z,8.60
2018-07-28T16:22:22.315Z,9.63
2018-07-28T16:24:50.487Z,5.10
2018-07-28T16:27:18.660Z,16.47
2018-07-28T16:29:46.832Z,11.10
2018-07-28T16:32:15.033Z,10.53
2018-07-28T16:34:42.950Z,13.20
2018-07-28T16:37:11.156Z,5.33
2018-07-28T16:39:39.332Z,12.67
2018-07-28T16:42:07.510Z,21.73
2018-07-28T16:44:35.722Z,14.90
2018-07-28T16:47:03.630Z,13.90
2018-07-28T16:49:31.795Z,7.10
2018-07-28T16:51:59.966Z,11.53
2018-07-28T16:54:28.180Z,12.50
2018-07-28T16:56:56.107Z,11.53
2018-07-28T16:59:24.313Z,12.00
2018-07-28T17:01:52.539Z,10.20
2018-07-28T17:04:20.692Z,7.83
2018-07-28T17:06:48.883Z,5.57
2018-07-28T17:09:17.068Z,7.20
2018-07-28T17:11:45.265Z,8.20
2018-07-28T17:14:13.460Z,10.00
2018-07-28T17:16:41.432Z,10.07
2018-07-28T17:19:09.375Z,11.30
2018-07-28T17:21:37.542Z,15.43
2018-07-28T17:24:05.916Z,8.70
2018-07-28T17:26:34.242Z,10.53
2018-07-28T17:29:03.127Z,6.13
2018-07-28T17:31:31.112Z,9.87
2018-07-28T17:33:59.304Z,14.63
2018-07-28T17:36:27.574Z,10.33
2018-07-28T17:38:55.801Z,10.50
2018-07-28T17:41:23.991Z,11.47
2018-07-28T17:43:52.096Z,15.17
2018-07-28T17:46:20.292Z,7.13
2018-07-28T17:48:48.500Z,16.90
2018-07-28T17:51:16.447Z,8.93
2018-07-28T17:53:44.648Z,11.50
2018-07-28T17:56:12.940Z,12.33
2018-07-28T17:58:41.185Z,9.17
2018-07-28T18:01:09.391Z,8.30
2018-07-28T18:03:37.600Z,6.60
2018-07-28T18:06:07.358Z,8.60
2018-07-28T18:08:35.309Z,9.23
2018-07-28T18:11:03.502Z,12.10
2018-07-28T18:13:31.459Z,5.70
2018-07-28T18:15:59.408Z,7.77
2018-07-28T18:18:27.611Z,13.63
2018-07-28T18:20:55.544Z,7.07
2018-07-28T18:23:23.775Z,10.43
2018-07-28T18:25:52.015Z,10.43
2018-07-28T18:28:20.178Z,7.80
2018-07-28T18:30:48.457Z,13.93
2018-07-28T18:33:16.331Z,10.80
2018-07-28T18:35:44.552Z,6.97
2018-07-28T18:38:12.740Z,11.13
2018-07-28T18:40:40.932Z,9.20
2018-07-28T18:43:09.203Z,13.40
2018-07-28T18:45:37.442Z,10.70
2018-07-28T18:48:05.803Z,12.93
2018-07-28T18:50:34.596Z,13.63
2018-07-28T18:53:02.796Z,13.73
2018-07-28T18:55:30.971Z,14.23
2018-07-28T18:57:59.169Z,14.83
2018-07-28T19:00:27.394Z,10.97
2018-07-28T19:02:55.589Z,11.73
2018-07-28T19:05:23.796Z,9.63
2018-07-28T19:07:51.979Z,9.40
2018-07-28T19:10:20.325Z,11.60
2018-07-28T19:12:53.739Z,18.90
2018-07-28T19:15:21.971Z,10.67
2018-07-28T19:17:55.699Z,15.53
2018-07-28T19:20:23.975Z,12.37
2018-07-28T19:22:57.725Z,11.70
2018-07-28T19:25:25.690Z,10.53
2018-07-28T19:27:59.168Z,13.40
2018-07-28T19:30:27.367Z,6.37
2018-07-28T19:32:55.361Z,14.30
2018-07-28T19:35:26.421Z,9.73
2018-07-28T19:37:54.621Z,11.23
2018-07-28T19:40:22.844Z,14.90
2018-07-28T19:42:52.099Z,12.40
2018-07-28T19:45:20.741Z,12.03
2018-07-28T19:47:48.910Z,7.40
2018-07-28T19:50:17.100Z,12.70
2018-07-28T19:52:45.283Z,10.63
2018-07-28T19:55:13.451Z,8.00
2018-07-28T19:57:41.645Z,6.73
2018-07-28T20:00:10.141Z,9.40
2018-07-28T20:02:38.358Z,8.73
2018-07-28T20:05:06.936Z,11.50
2018-07-28T20:07:35.232Z,10.17
2018-07-28T20:10:03.516Z,8.40
2018-07-28T20:12:31.706Z,12.43
2018-07-28T20:14:59.887Z,13.33
2018-07-28T20:17:28.080Z,12.03
2018-07-28T20:19:56.011Z,11.90
2018-07-28T20:22:24.456Z,7.40
2018-07-28T20:24:52.647Z,8.63
2018-07-28T20:27:20.833Z,4.73
2018-07-28T20:29:49.065Z,8.83
2018-07-28T20:32:16.998Z,8.73
2018-07-28T20:34:45.183Z,9.67
2018-07-28T20:37:13.382Z,5.67
2018-07-28T20:39:41.299Z,8.83
2018-07-28T20:42:09.480Z,7.47
2018-07-28T20:44:37.759Z,4.63
2018-07-28T20:47:07.708Z,8.10
2018-07-28T20:49:36.191Z,9.63
2018-07-28T20:52:04.149Z,9.13
2018-07-28T20:54:32.384Z,3.73
2018-07-28T20:57:00.595Z,5.53
2018-07-28T20:59:28.686Z,9.00
2018-07-28T21:01:56.796Z,9.90
2018-07-28T21:04:25.048Z,8.97
2018-07-28T21:06:53.211Z,8.30
2018-07-28T21:09:21.392Z,6.63
2018-07-28T21:11:49.580Z,12.70
2018-07-28T21:14:17.743Z,9.63
2018-07-28T21:16:45.959Z,11.83
2018-07-28T21:19:14.211Z,7.33
2018-07-28T21:21:42.427Z,5.13
2018-07-28T21:24:10.556Z,8.07
2018-07-28T21:26:38.732Z,8.40
2018-07-28T21:29:06.963Z,6.47
2018-07-28T21:31:35.101Z,13.20
2018-07-28T21:34:03.315Z,7.90
2018-07-28T21:36:31.239Z,10.03
2018-07-28T21:38:59.979Z,6.10
2018-07-28T21:41:28.179Z,7.90
2018-07-28T21:43:56.388Z,5.10
2018-07-28T21:46:24.589Z,7.50
2018-07-28T21:48:52.500Z,4.10
2018-07-28T21:51:20.673Z,8.10
2018-07-28T21:53:48.855Z,8.03
2018-07-28T21:56:21.388Z,6.80
2018-07-28T21:58:49.681Z,6.60
2018-07-28T22:01:17.861Z,7.07
2018-07-28T22:03:46.056Z,9.03
2018-07-28T22:06:14.372Z,9.30
2018-07-28T22:08:42.775Z,11.67
2018-07-28T22:11:10.981Z,7.63
2018-07-28T22:13:39.150Z,8.13
2018-07-28T22:16:07.371Z,5.27
2018-07-28T22:18:35.551Z,11.10
2018-07-28T22:21:03.732Z,10.53
2018-07-28T22:23:31.904Z,11.27
2018-07-28T22:26:00.527Z,9.53
2018-07-28T22:28:28.707Z,6.83
2018-07-28T22:30:56.875Z,18.90
2018-07-28T22:33:25.133Z,11.73
2018-07-28T22:35:53.305Z,10.60
2018-07-28T22:38:21.483Z,4.93
2018-07-28T22:40:49.659Z,10.27
2018-07-28T22:43:17.927Z,8.40
2018-07-28T22:45:46.091Z,6.00
2018-07-28T22:48:14.252Z,9.60
2018-07-28T22:50:42.433Z,10.07
2018-07-28T22:53:10.630Z,8.53
2018-07-28T22:55:38.883Z,10.27
2018-07-28T22:58:07.116Z,7.47
2018-07-28T23:00:35.276Z,7.67
2018-07-28T23:03:03.448Z,9.27
2018-07-28T23:05:31.618Z,8.37
2018-07-28T23:07:59.768Z,10.67
2018-07-28T23:10:27.943Z,10.13
2018-07-28T23:12:56.095Z,7.50
2018-07-28T23:15:25.236Z,8.03
2018-07-28T23:17:53.417Z,11.83
2018-07-28T23:20:21.579Z,4.60
2018-07-28T23:22:49.755Z,8.27
2018-07-28T23:25:17.931Z,10.63
2018-07-28T23:27:46.135Z,12.17
2018-07-28T23:30:14.292Z,11.07
2018-07-28T23:32:42.467Z,17.93
2018-07-28T23:35:10.653Z,8.40
2018-07-28T23:37:38.836Z,6.37
2018-07-28T23:40:07.047Z,6.30
2018-07-28T23:42:35.249Z,9.77
2018-07-28T23:45:03.559Z,8.93
2018-07-28T23:47:31.547Z,5.40
2018-07-28T23:49:59.712Z,6.40
2018-07-28T23:52:27.678Z,7.73
2018-07-28T23:54:55.852Z,10.93
2018-07-28T23:57:24.667Z,7.43
2018-07-28T23:59:52.837Z,5.93
